Time;durP1;ratioP1;P1;durP2;ratioP2;P2;SDS_P1;SDS_P2;PMS_P1;PMS_P2;Temp;Humidity;BMP_temperature;BMP_pressure;BME280_temperature;BME280_humidity;BME280_pressure;Samples;Min_cycle;Max_cycle;Signal;HPM_P1;HPM_P2
2022/01/05 00:00:41;;;;;;;9.30;2.20;;;5.70;99.90;;;;;;5035354;28;20530;-52
2022/01/05 00:03:09;;;;;;;4.93;1.80;;;5.70;99.90;;;;;;5035565;28;20460;-48
2022/01/05 00:05:36;;;;;;;2.90;1.57;;;5.60;99.90;;;;;;5035509;28;20468;-53
2022/01/05 00:08:02;;;;;;;2.60;1.53;;;5.70;99.90;;;;;;5035113;28;20441;-50
2022/01/05 00:10:29;;;;;;;9.10;1.97;;;5.70;99.90;;;;;;5035773;28;20516;-48
2022/01/05 00:12:56;;;;;;;3.23;1.33;;;5.60;99.90;;;;;;5035219;28;20518;-48
2022/01/05 00:15:24;;;;;;;4.73;1.87;;;5.70;99.90;;;;;;5035270;28;20448;-50
2022/01/05 00:17:50;;;;;;;2.23;1.33;;;5.70;99.90;;;;;;5035107;28;20484;-50
2022/01/05 00:20:17;;;;;;;5.33;2.30;;;5.70;99.90;;;;;;5035140;28;20522;-51
2022/01/05 00:22:44;;;;;;;5.27;1.40;;;5.60;99.90;;;;;;5034972;28;20476;-50
2022/01/05 00:25:11;;;;;;;4.80;2.13;;;5.70;99.90;;;;;;5035203;28;20465;-51
2022/01/05 00:27:37;;;;;;;2.47;1.60;;;5.70;99.90;;;;;;5035033;28;20451;-46
2022/01/05 00:30:05;;;;;;;1.60;1.30;;;5.60;99.90;;;;;;5035273;28;20494;-53
2022/01/05 00:32:33;;;;;;;3.93;1.60;;;5.60;99.90;;;;;;5034647;28;20456;-46
2022/01/05 00:35:00;;;;;;;2.60;1.03;;;5.60;99.90;;;;;;5034976;28;20451;-52
2022/01/05 00:37:27;;;;;;;3.63;1.23;;;5.50;99.90;;;;;;5034554;28;20960;-50
2022/01/05 00:39:53;;;;;;;2.00;1.40;;;5.60;99.90;;;;;;5034782;28;20483;-52
2022/01/05 00:42:20;;;;;;;1.50;1.00;;;5.60;99.90;;;;;;5034841;28;20491;-51
2022/01/05 00:44:47;;;;;;;1.77;0.87;;;5.70;99.90;;;;;;5034372;28;20484;-50
2022/01/05 00:47:15;;;;;;;2.30;1.20;;;5.70;99.90;;;;;;5034364;28;20913;-49
2022/01/05 00:49:43;;;;;;;1.50;1.00;;;5.70;99.90;;;;;;5034021;28;20460;-50
2022/01/05 00:52:10;;;;;;;3.00;1.07;;;5.80;99.90;;;;;;5034994;28;20456;-52
2022/01/05 00:54:37;;;;;;;1.97;1.50;;;5.80;99.90;;;;;;5034447;28;20511;-49
2022/01/05 00:57:04;;;;;;;14.63;1.50;;;5.80;99.90;;;;;;5034226;28;20862;-50
2022/01/05 00:59:31;;;;;;;1.40;0.87;;;5.70;99.90;;;;;;5034600;28;20456;-51
2022/01/05 01:01:57;;;;;;;3.10;1.20;;;5.70;99.90;;;;;;5034461;28;20531;-50
2022/01/05 01:04:24;;;;;;;5.10;1.10;;;5.70;99.90;;;;;;5034247;28;20950;-49
2022/01/05 01:06:52;;;;;;;1.17;0.80;;;5.60;99.90;;;;;;5034406;28;20542;-46
2022/01/05 01:09:19;;;;;;;2.63;1.60;;;5.60;99.90;;;;;;5034511;28;20444;-51
2022/01/05 01:11:45;;;;;;;1.20;0.70;;;5.60;99.90;;;;;;5034830;28;20440;-49
2022/01/05 01:14:12;;;;;;;1.00;0.70;;;5.60;99.90;;;;;;5034470;28;20441;-49
2022/01/05 01:16:39;;;;;;;10.73;0.80;;;5.60;99.90;;;;;;5034199;28;20909;-50
2022/01/05 01:19:06;;;;;;;1.30;0.80;;;5.60;99.90;;;;;;5034244;28;20492;-49
2022/01/05 01:21:33;;;;;;;1.90;1.27;;;5.70;99.90;;;;;;5034440;28;20444;-49
2022/01/05 01:24:00;;;;;;;9.90;1.90;;;5.60;99.90;;;;;;5034471;28;20480;-52
2022/01/05 01:26:30;;;;;;;2.30;1.17;;;5.70;99.90;;;;;;5034336;28;20460;-47
2022/01/05 01:28:57;;;;;;;4.73;1.00;;;5.80;99.90;;;;;;5034325;28;20534;-52
2022/01/05 01:31:24;;;;;;;8.23;1.47;;;5.80;99.90;;;;;;5034489;28;20516;-52
2022/01/05 01:33:51;;;;;;;2.50;1.17;;;5.80;99.90;;;;;;5034431;28;20472;-47
2022/01/05 01:36:18;;;;;;;2.00;1.20;;;5.80;99.90;;;;;;5034299;28;20453;-48
2022/01/05 01:38:45;;;;;;;8.20;1.43;;;5.80;99.90;;;;;;5034246;28;20622;-51
2022/01/05 01:41:14;;;;;;;4.00;1.03;;;5.80;99.90;;;;;;5034239;28;20456;-49
2022/01/05 01:43:41;;;;;;;1.53;0.90;;;5.90;99.90;;;;;;5033997;28;20819;-50
2022/01/05 01:46:08;;;;;;;4.70;0.90;;;5.80;99.90;;;;;;5033990;28;20463;-48
2022/01/05 01:48:36;;;;;;;2.60;1.50;;;5.80;99.90;;;;;;5034205;28;20449;-50
2022/01/05 01:51:02;;;;;;;1.47;1.00;;;5.80;99.90;;;;;;5034126;28;20468;-53
2022/01/05 01:53:29;;;;;;;1.57;1.00;;;5.80;99.90;;;;;;5034697;28;20425;-49
2022/01/05 01:55:59;;;;;;;1.57;1.20;;;5.90;99.90;;;;;;5034138;28;20452;-51
2022/01/05 01:58:31;;;;;;;1.40;1.20;;;5.90;99.90;;;;;;5034058;28;20488;-50
2022/01/05 02:00:58;;;;;;;2.23;0.97;;;5.90;99.90;;;;;;5035199;28;20874;-48
2022/01/05 02:03:25;;;;;;;1.23;0.80;;;5.90;99.90;;;;;;5037645;28;20475;-51
2022/01/05 02:05:51;;;;;;;2.60;1.17;;;5.90;99.90;;;;;;5037695;28;20453;-50
2022/01/05 02:08:18;;;;;;;7.23;1.00;;;5.90;99.90;;;;;;5037708;28;20472;-50
2022/01/05 02:10:45;;;;;;;1.67;0.90;;;6.00;99.90;;;;;;5037594;28;20754;-51
2022/01/05 02:13:12;;;;;;;2.37;1.10;;;6.00;99.90;;;;;;5037631;28;20476;-46
2022/01/05 02:15:41;;;;;;;1.67;1.00;;;6.00;99.90;;;;;;5037355;28;20881;-50
2022/01/05 02:18:57;;;;;;;1.50;1.13;;;6.00;99.90;;;;;;5037449;28;20484;-53
2022/01/05 02:21:01;;;;;;;3.10;1.00;;;6.00;99.90;;;;;;5037016;28;20444;-52
2022/01/05 02:23:28;;;;;;;1.70;1.00;;;6.00;99.90;;;;;;5037364;28;20552;-53
2022/01/05 02:25:55;;;;;;;1.03;0.70;;;6.00;99.90;;;;;;5037332;28;20444;-50
2022/01/05 02:28:22;;;;;;;1.97;1.17;;;6.00;99.90;;;;;;5037068;28;20944;-48
2022/01/05 02:30:52;;;;;;;3.37;1.03;;;6.10;99.90;;;;;;5037171;28;20495;-50
2022/01/05 02:33:19;;;;;;;5.27;1.80;;;6.10;99.90;;;;;;5036948;28;20527;-48
2022/01/05 02:35:46;;;;;;;3.80;1.00;;;6.10;99.90;;;;;;5037460;28;20479;-46
2022/01/05 02:38:18;;;;;;;1.30;1.03;;;6.10;99.90;;;;;;5037058;28;20480;-50
2022/01/05 02:40:44;;;;;;;1.73;1.37;;;6.10;99.90;;;;;;5037046;28;20809;-50
2022/01/05 02:43:11;;;;;;;2.60;1.30;;;6.10;99.90;;;;;;5037263;28;20478;-50
2022/01/05 02:45:38;;;;;;;4.20;1.00;;;6.00;99.90;;;;;;5036937;28;20479;-46
2022/01/05 02:48:05;;;;;;;1.50;0.77;;;6.00;99.90;;;;;;5036982;28;20468;-49
2022/01/05 02:50:32;;;;;;;1.80;1.00;;;6.00;99.90;;;;;;5036941;28;20449;-48
2022/01/05 02:52:58;;;;;;;1.97;1.00;;;6.00;99.90;;;;;;5036704;28;20465;-49
2022/01/05 02:55:26;;;;;;;0.90;0.70;;;6.00;99.90;;;;;;5036994;28;20457;-48
2022/01/05 02:57:53;;;;;;;2.40;0.93;;;5.90;99.90;;;;;;5036676;28;20488;-52
2022/01/05 03:00:20;;;;;;;1.67;0.93;;;5.90;99.90;;;;;;5036733;28;20448;-47
2022/01/05 03:02:47;;;;;;;1.40;1.20;;;5.90;99.90;;;;;;5036571;28;20448;-47
2022/01/05 03:05:14;;;;;;;1.63;1.13;;;5.90;99.90;;;;;;5036559;28;20453;-49
2022/01/05 03:07:40;;;;;;;4.00;1.10;;;5.90;99.90;;;;;;5036596;28;20452;-50
2022/01/05 03:10:10;;;;;;;1.30;1.20;;;5.90;99.90;;;;;;5036576;28;20445;-47
2022/01/05 03:12:39;;;;;;;7.53;1.30;;;6.00;99.90;;;;;;5035983;28;20444;-49
2022/01/05 03:15:08;;;;;;;11.53;2.00;;;6.00;99.90;;;;;;5036483;28;20531;-47
2022/01/05 03:17:34;;;;;;;1.00;0.60;;;6.00;99.90;;;;;;5036534;28;20514;-51
2022/01/05 03:20:01;;;;;;;1.20;0.80;;;6.00;99.90;;;;;;5035958;28;21019;-52
2022/01/05 03:22:28;;;;;;;1.50;1.10;;;5.90;99.90;;;;;;5036314;28;20503;-49
2022/01/05 03:24:55;;;;;;;1.97;0.87;;;5.90;99.90;;;;;;5036203;28;20441;-47
2022/01/05 03:27:21;;;;;;;1.33;0.80;;;5.80;99.90;;;;;;5036245;28;20448;-49
2022/01/05 03:29:49;;;;;;;1.70;1.40;;;5.90;99.90;;;;;;5036322;28;20452;-51
2022/01/05 03:32:16;;;;;;;1.47;0.83;;;5.80;99.90;;;;;;5036106;28;20445;-53
2022/01/05 03:34:44;;;;;;;1.37;0.90;;;5.90;99.90;;;;;;5036103;28;20452;-50
2022/01/05 03:37:11;;;;;;;1.40;0.77;;;5.90;99.90;;;;;;5036472;28;20867;-48
2022/01/05 03:39:38;;;;;;;9.83;1.80;;;5.90;99.90;;;;;;5035535;28;20526;-49
2022/01/05 03:42:05;;;;;;;12.50;1.33;;;5.90;99.90;;;;;;5035823;28;20477;-51
2022/01/05 03:44:32;;;;;;;6.00;1.60;;;5.80;99.90;;;;;;5035666;28;20448;-50
2022/01/05 03:47:00;;;;;;;2.40;0.80;;;5.80;99.90;;;;;;5035422;28;20476;-50
2022/01/05 03:49:27;;;;;;;1.17;0.90;;;5.90;99.90;;;;;;5036401;28;20920;-51
2022/01/05 03:51:54;;;;;;;1.87;1.17;;;5.90;99.90;;;;;;5035397;28;20440;-53
2022/01/05 03:54:20;;;;;;;3.80;1.37;;;5.80;99.90;;;;;;5035555;28;20480;-52
2022/01/05 03:56:47;;;;;;;1.63;0.93;;;5.90;99.90;;;;;;5035689;28;20465;-50
2022/01/05 03:59:14;;;;;;;1.00;0.70;;;5.80;99.90;;;;;;5035581;28;20558;-45
2022/01/05 04:01:40;;;;;;;1.50;1.00;;;5.80;99.90;;;;;;5035652;28;20511;-52
2022/01/05 04:04:08;;;;;;;1.00;0.77;;;5.80;99.90;;;;;;5035389;28;20507;-50
2022/01/05 04:06:35;;;;;;;6.83;1.10;;;5.80;99.90;;;;;;5035567;28;20429;-48
2022/01/05 04:09:02;;;;;;;1.60;0.70;;;5.80;99.90;;;;;;5035449;28;20441;-56
2022/01/05 04:11:28;;;;;;;2.83;1.40;;;5.90;99.90;;;;;;5035660;28;20530;-50
2022/01/05 04:13:55;;;;;;;2.07;1.00;;;5.80;99.90;;;;;;5035343;28;20538;-50
2022/01/05 04:16:22;;;;;;;1.10;0.70;;;5.80;99.90;;;;;;5035214;28;20484;-49
2022/01/05 04:18:48;;;;;;;1.90;0.80;;;5.80;99.90;;;;;;5035698;28;20523;-49
2022/01/05 04:21:16;;;;;;;1.00;0.70;;;5.70;99.90;;;;;;5035398;28;20476;-46
2022/01/05 04:23:43;;;;;;;2.20;0.90;;;5.60;99.90;;;;;;5034557;28;20448;-48
2022/01/05 04:26:10;;;;;;;7.53;1.77;;;5.50;99.90;;;;;;5034694;28;20521;-45
2022/01/05 04:28:37;;;;;;;1.07;0.70;;;5.50;99.90;;;;;;5035159;28;20496;-47
2022/01/05 04:31:03;;;;;;;1.00;0.87;;;5.40;99.90;;;;;;5034985;28;20464;-51
2022/01/05 04:33:30;;;;;;;4.00;0.90;;;5.30;99.90;;;;;;5034868;28;20830;-51
2022/01/05 04:35:57;;;;;;;0.87;0.60;;;5.30;99.90;;;;;;5034489;28;20804;-48
2022/01/05 04:38:27;;;;;;;1.20;0.70;;;5.30;99.90;;;;;;5034590;28;20481;-51
2022/01/05 04:40:54;;;;;;;1.30;0.70;;;5.20;99.90;;;;;;5035107;28;20443;-48
2022/01/05 04:43:21;;;;;;;4.60;0.60;;;5.10;99.90;;;;;;5034753;28;20479;-43
2022/01/05 04:45:49;;;;;;;0.80;0.50;;;5.20;99.90;;;;;;5034562;28;20461;-48
2022/01/05 04:48:15;;;;;;;2.30;0.90;;;5.10;99.90;;;;;;5034649;28;20445;-54
2022/01/05 04:50:42;;;;;;;0.87;0.60;;;5.00;99.90;;;;;;5034725;28;20437;-46
2022/01/05 04:53:11;;;;;;;2.27;0.90;;;5.00;99.90;;;;;;5034379;28;20456;-50
2022/01/05 04:55:39;;;;;;;0.90;0.70;;;5.00;99.90;;;;;;5034512;28;20955;-50
2022/01/05 04:58:06;;;;;;;1.47;0.63;;;5.00;99.90;;;;;;5034386;28;20479;-48
2022/01/05 05:00:32;;;;;;;1.10;0.60;;;5.00;99.90;;;;;;5034663;28;20477;-51
2022/01/05 05:03:03;;;;;;;1.00;0.67;;;5.00;99.90;;;;;;5034576;28;20468;-52
2022/01/05 05:05:30;;;;;;;1.73;0.73;;;5.00;99.90;;;;;;5034534;28;20562;-50
2022/01/05 05:07:57;;;;;;;1.80;0.90;;;5.00;99.90;;;;;;5034317;28;20521;-51
2022/01/05 05:10:24;;;;;;;12.20;1.10;;;5.00;99.90;;;;;;5034789;28;20445;-54
2022/01/05 05:12:52;;;;;;;1.73;0.73;;;5.00;99.90;;;;;;5035006;28;20453;-48
2022/01/05 05:15:19;;;;;;;5.97;0.97;;;5.00;99.90;;;;;;5034491;28;20510;-49
2022/01/05 05:17:46;;;;;;;1.10;0.80;;;5.00;99.90;;;;;;5034468;28;20514;-50
2022/01/05 05:20:12;;;;;;;0.80;0.50;;;4.90;99.90;;;;;;5034613;28;20480;-56
2022/01/05 05:22:39;;;;;;;0.90;0.60;;;5.00;99.90;;;;;;5034430;28;20506;-53
2022/01/05 05:25:07;;;;;;;24.43;1.17;;;5.00;99.90;;;;;;5034370;28;20444;-46
2022/01/05 05:27:34;;;;;;;1.27;0.97;;;5.00;99.90;;;;;;5034128;28;20468;-46
2022/01/05 05:30:02;;;;;;;0.90;0.60;;;5.00;99.90;;;;;;5034433;28;20433;-48
2022/01/05 05:32:28;;;;;;;1.70;0.83;;;5.00;99.90;;;;;;5034254;28;20453;-51
2022/01/05 05:34:55;;;;;;;2.27;0.73;;;5.00;99.90;;;;;;5033999;28;20464;-52
2022/01/05 05:37:23;;;;;;;9.53;0.83;;;5.00;99.90;;;;;;5038159;28;20482;-46
2022/01/05 05:39:49;;;;;;;1.13;0.70;;;5.00;99.90;;;;;;5037980;28;20999;-50
2022/01/05 05:42:16;;;;;;;1.10;0.60;;;4.90;99.90;;;;;;5038216;28;20511;-50
2022/01/05 05:44:43;;;;;;;14.00;1.10;;;5.00;99.90;;;;;;5038054;28;20476;-50
2022/01/05 05:47:11;;;;;;;1.13;0.73;;;5.00;99.90;;;;;;5038017;28;20452;-50
2022/01/05 05:49:38;;;;;;;2.60;0.80;;;5.00;99.90;;;;;;5037955;28;20461;-47
2022/01/05 05:52:05;;;;;;;4.63;0.90;;;4.90;99.90;;;;;;5038117;28;20445;-46
2022/01/05 05:54:32;;;;;;;4.70;1.40;;;4.90;99.90;;;;;;5037966;28;20515;-54
2022/01/05 05:56:58;;;;;;;1.90;1.10;;;4.90;99.90;;;;;;5037927;28;20452;-50
2022/01/05 05:59:25;;;;;;;2.23;0.67;;;4.90;99.90;;;;;;5037762;28;20542;-48
2022/01/05 06:01:52;;;;;;;10.03;1.00;;;4.80;99.90;;;;;;5038029;28;20472;-52
2022/01/05 06:04:20;;;;;;;4.77;0.70;;;4.90;99.90;;;;;;5037509;28;20805;-51
2022/01/05 06:06:46;;;;;;;1.10;0.67;;;5.10;99.90;;;;;;5037488;28;20486;-49
2022/01/05 06:09:15;;;;;;;1.00;0.60;;;4.90;99.90;;;;;;5037699;28;20801;-45
2022/01/05 06:11:41;;;;;;;8.03;0.90;;;4.80;99.90;;;;;;5037314;28;20534;-48
2022/01/05 06:14:12;;;;;;;2.57;0.80;;;4.80;99.90;;;;;;5037660;28;20448;-48
2022/01/05 06:16:38;;;;;;;4.20;0.60;;;4.80;99.90;;;;;;5037992;28;20526;-51
2022/01/05 06:19:09;;;;;;;1.17;0.63;;;4.80;99.90;;;;;;5037407;28;20512;-47
2022/01/05 06:21:38;;;;;;;1.10;0.80;;;4.80;99.90;;;;;;5037799;28;20425;-45
2022/01/05 06:24:05;;;;;;;1.90;1.30;;;4.80;99.90;;;;;;5034968;28;20499;-50
2022/01/05 06:26:32;;;;;;;1.47;0.83;;;4.80;99.90;;;;;;5018683;28;20778;-50
2022/01/05 06:28:58;;;;;;;1.40;1.00;;;4.80;99.90;;;;;;5017468;28;20469;-47
2022/01/05 06:31:25;;;;;;;1.00;0.83;;;4.80;99.90;;;;;;5017792;28;20609;-51
2022/01/05 06:33:52;;;;;;;1.50;1.03;;;4.80;99.90;;;;;;5022865;28;20453;-51
2022/01/05 06:36:18;;;;;;;1.10;0.70;;;4.80;99.90;;;;;;5021215;28;20801;-49
2022/01/05 06:38:46;;;;;;;0.87;0.60;;;4.70;99.90;;;;;;5019987;28;20445;-50
2022/01/05 06:41:13;;;;;;;1.40;0.90;;;4.80;99.90;;;;;;5025089;28;20495;-49
2022/01/05 06:43:40;;;;;;;1.20;0.90;;;4.80;99.90;;;;;;5031699;28;20471;-53
2022/01/05 06:46:06;;;;;;;1.10;0.70;;;4.80;99.90;;;;;;5039285;28;20550;-48
2022/01/05 06:48:33;;;;;;;1.93;0.90;;;4.70;99.90;;;;;;5038466;28;20468;-47
2022/01/05 06:51:00;;;;;;;1.10;0.67;;;4.70;99.90;;;;;;5039158;28;20464;-47
2022/01/05 06:53:27;;;;;;;2.80;0.80;;;4.70;99.90;;;;;;5039054;28;20452;-47
2022/01/05 06:55:55;;;;;;;2.10;0.97;;;4.70;99.90;;;;;;5039038;28;20446;-48
2022/01/05 06:58:22;;;;;;;1.87;1.00;;;4.70;99.90;;;;;;5039208;28;20510;-48
2022/01/05 07:00:52;;;;;;;2.20;1.20;;;4.60;99.90;;;;;;5038839;28;20523;-51
2022/01/05 07:03:18;;;;;;;3.63;1.37;;;4.60;99.90;;;;;;5039900;28;20542;-47
2022/01/05 07:05:45;;;;;;;1.50;1.10;;;4.60;99.90;;;;;;5040202;28;20475;-47
2022/01/05 07:08:12;;;;;;;7.80;2.00;;;4.50;99.90;;;;;;5039750;28;20939;-44
2022/01/05 07:10:38;;;;;;;1.20;0.90;;;4.60;99.90;;;;;;5039457;28;20456;-44
2022/01/05 07:13:07;;;;;;;3.20;1.13;;;4.60;99.90;;;;;;5039148;28;20473;-43
2022/01/05 07:15:34;;;;;;;2.70;1.87;;;4.60;99.90;;;;;;5030438;28;20487;-47
2022/01/05 07:18:01;;;;;;;5.10;1.67;;;4.60;99.90;;;;;;5021617;28;20515;-47
2022/01/05 07:20:28;;;;;;;2.70;1.70;;;4.60;99.90;;;;;;5019061;28;20507;-45
2022/01/05 07:22:55;;;;;;;2.30;1.87;;;4.50;99.90;;;;;;5018871;28;20852;-47
2022/01/05 07:25:21;;;;;;;2.03;1.77;;;4.50;99.90;;;;;;5020236;28;20841;-45
2022/01/05 07:27:49;;;;;;;5.20;2.17;;;4.50;99.90;;;;;;5021664;28;20476;-46
2022/01/05 07:30:17;;;;;;;2.23;1.33;;;4.60;99.90;;;;;;5021457;28;20470;-44
2022/01/05 07:32:44;;;;;;;1.97;1.27;;;4.60;99.90;;;;;;5020990;28;20449;-47
2022/01/05 07:35:10;;;;;;;1.10;0.90;;;4.60;99.90;;;;;;5020942;28;20450;-47
2022/01/05 07:37:37;;;;;;;9.40;1.20;;;4.60;99.90;;;;;;5021091;28;20496;-53
2022/01/05 07:40:05;;;;;;;8.83;1.17;;;4.60;99.90;;;;;;5020555;28;20489;-46
2022/01/05 07:42:34;;;;;;;1.30;0.80;;;4.60;99.90;;;;;;5020688;28;20488;-47
2022/01/05 07:45:00;;;;;;;1.37;0.93;;;4.60;99.90;;;;;;5021178;28;20448;-47
2022/01/05 07:47:28;;;;;;;1.23;0.60;;;4.60;99.90;;;;;;5021425;28;20842;-45
2022/01/05 07:49:55;;;;;;;1.40;0.70;;;4.60;99.90;;;;;;5021478;28;20623;-49
2022/01/05 07:52:22;;;;;;;4.70;1.40;;;4.70;99.90;;;;;;5020942;28;20961;-46
2022/01/05 07:54:50;;;;;;;1.20;1.07;;;4.80;99.90;;;;;;5020892;28;20464;-45
2022/01/05 07:57:16;;;;;;;1.87;1.20;;;4.70;99.90;;;;;;5021168;28;20564;-48
2022/01/05 07:59:43;;;;;;;2.70;1.70;;;4.70;99.90;;;;;;5021081;28;20477;-48
2022/01/05 08:02:09;;;;;;;3.37;1.67;;;4.70;99.90;;;;;;5021646;28;20449;-49
2022/01/05 08:04:38;;;;;;;4.10;0.90;;;4.70;99.90;;;;;;5021370;28;20789;-47
2022/01/05 08:07:06;;;;;;;2.70;1.00;;;4.70;99.90;;;;;;5021124;28;20460;-48
2022/01/05 08:09:33;;;;;;;7.20;0.97;;;4.70;99.90;;;;;;5022013;28;20430;-47
2022/01/05 08:12:00;;;;;;;2.50;1.60;;;4.70;99.90;;;;;;5022266;28;20445;-45
2022/01/05 08:14:26;;;;;;;2.37;0.90;;;4.70;99.90;;;;;;5022923;28;20488;-45
2022/01/05 08:16:55;;;;;;;1.10;0.60;;;4.70;99.90;;;;;;5023090;28;20453;-45
2022/01/05 08:19:25;;;;;;;1.63;1.20;;;4.70;99.90;;;;;;5021882;28;20476;-48
2022/01/05 08:21:54;;;;;;;1.00;0.80;;;4.70;99.90;;;;;;5021416;28;20438;-45
2022/01/05 08:24:22;;;;;;;1.30;1.10;;;4.70;99.90;;;;;;5027816;28;20433;-50
2022/01/05 08:26:49;;;;;;;5.10;1.57;;;4.70;99.90;;;;;;5036532;28;20428;-50
2022/01/05 08:29:16;;;;;;;6.63;1.10;;;4.70;99.90;;;;;;5036312;28;20433;-51
2022/01/05 08:31:43;;;;;;;2.60;1.10;;;4.80;99.90;;;;;;5036234;28;20432;-50
2022/01/05 08:34:10;;;;;;;2.63;1.47;;;4.80;99.90;;;;;;5036436;28;20455;-46
2022/01/05 08:36:39;;;;;;;3.73;0.87;;;4.80;99.90;;;;;;5036286;28;20468;-44
2022/01/05 08:39:07;;;;;;;2.23;1.13;;;4.80;99.90;;;;;;5036309;28;20467;-53
2022/01/05 08:41:34;;;;;;;2.40;1.20;;;4.70;99.90;;;;;;5027630;28;20481;-51
2022/01/05 08:44:00;;;;;;;3.83;1.43;;;4.70;99.90;;;;;;5014844;28;20958;-46
2022/01/05 08:46:27;;;;;;;5.33;1.10;;;4.70;99.90;;;;;;5014856;28;20560;-48
2022/01/05 08:48:54;;;;;;;1.87;1.27;;;4.70;99.90;;;;;;5014766;28;20494;-45
2022/01/05 08:51:21;;;;;;;5.43;1.80;;;4.60;99.90;;;;;;5015023;28;20446;-48
2022/01/05 08:53:47;;;;;;;1.67;1.17;;;4.60;99.90;;;;;;5014592;28;20488;-46
2022/01/05 08:56:16;;;;;;;1.73;1.47;;;4.60;99.90;;;;;;5014880;28;20449;-49
2022/01/05 08:58:42;;;;;;;5.83;2.00;;;4.60;99.90;;;;;;5014566;28;20828;-48
2022/01/05 09:01:12;;;;;;;1.20;0.90;;;4.60;99.90;;;;;;5014852;28;20539;-44
2022/01/05 09:03:39;;;;;;;3.20;1.57;;;4.60;99.90;;;;;;5015035;28;20504;-51
2022/01/05 09:06:06;;;;;;;9.10;1.43;;;4.50;99.90;;;;;;5014943;28;20465;-44
2022/01/05 09:08:33;;;;;;;2.73;1.30;;;4.50;99.90;;;;;;5014875;28;20547;-45
2022/01/05 09:11:00;;;;;;;1.33;0.90;;;4.50;99.90;;;;;;5014143;28;20456;-49
2022/01/05 09:13:31;;;;;;;2.40;1.37;;;4.60;99.90;;;;;;5014629;28;20473;-46
2022/01/05 09:15:57;;;;;;;6.73;1.50;;;4.70;99.90;;;;;;5014722;28;20430;-45
2022/01/05 09:18:24;;;;;;;5.43;1.10;;;4.70;99.90;;;;;;5014567;28;20473;-42
2022/01/05 09:20:52;;;;;;;2.33;0.97;;;4.80;99.90;;;;;;5014531;28;20481;-51
2022/01/05 09:23:19;;;;;;;2.17;0.83;;;4.90;99.90;;;;;;5014495;28;20477;-45
2022/01/05 09:25:46;;;;;;;1.33;0.90;;;4.90;99.90;;;;;;5014846;28;20433;-49
2022/01/05 09:28:13;;;;;;;8.93;3.33;;;4.90;99.90;;;;;;5014531;28;20469;-45
2022/01/05 09:30:45;;;;;;;2.10;1.63;;;5.00;99.90;;;;;;5014771;28;20445;-45
2022/01/05 09:33:13;;;;;;;1.23;0.97;;;5.10;99.90;;;;;;5014600;28;20551;-44
2022/01/05 09:35:39;;;;;;;1.20;1.07;;;5.30;99.90;;;;;;5014690;28;20465;-45
2022/01/05 09:38:33;;;;;;;1.60;1.00;;;5.50;99.90;;;;;;5014687;28;20465;-49
2022/01/05 09:43:51;;;;;;;1.43;1.20;;;5.90;99.90;;;;;;5014148;28;20558;-46
2022/01/05 09:46:31;;;;;;;3.57;1.17;;;6.20;99.90;;;;;;5014321;28;20518;-51
2022/01/05 09:49:08;;;;;;;1.50;1.20;;;6.30;99.90;;;;;;5014207;28;20469;-44
2022/01/05 09:51:38;;;;;;;1.10;0.90;;;6.50;99.90;;;;;;5014689;28;20440;-47
2022/01/05 09:54:05;;;;;;;1.33;1.20;;;6.60;99.90;;;;;;5014076;28;20477;-44
2022/01/05 09:56:32;;;;;;;4.37;0.97;;;6.70;99.90;;;;;;5014320;28;20531;-47
2022/01/05 09:59:00;;;;;;;10.63;2.23;;;6.80;99.90;;;;;;5014255;28;20528;-50
2022/01/05 10:01:30;;;;;;;6.23;1.30;;;7.00;99.90;;;;;;5014222;28;20484;-48
2022/01/05 10:03:58;;;;;;;5.53;1.70;;;7.00;99.90;;;;;;5014090;28;20487;-46
2022/01/05 10:06:25;;;;;;;2.27;1.20;;;7.00;99.90;;;;;;5014274;28;20510;-49
2022/01/05 10:08:52;;;;;;;6.27;2.40;;;6.90;99.90;;;;;;5014192;28;20473;-47
2022/01/05 10:11:20;;;;;;;1.73;1.00;;;7.10;99.90;;;;;;5014419;28;20811;-47
2022/01/05 10:13:47;;;;;;;4.70;1.60;;;7.30;99.90;;;;;;5014077;28;20516;-52
2022/01/05 10:16:15;;;;;;;4.80;1.50;;;7.30;99.90;;;;;;5014235;28;20472;-49
2022/01/05 10:18:45;;;;;;;2.43;1.07;;;7.40;99.90;;;;;;5014016;28;20503;-49
2022/01/05 10:21:14;;;;;;;9.30;0.97;;;7.30;99.90;;;;;;5014110;28;20780;-50
2022/01/05 10:23:42;;;;;;;1.53;0.93;;;7.30;99.90;;;;;;5016488;28;20488;-49
2022/01/05 10:26:24;;;;;;;6.10;2.37;;;7.00;99.90;;;;;;5017572;28;20441;-49
2022/01/05 10:28:52;;;;;;;1.90;1.07;;;6.70;99.90;;;;;;5017403;28;20473;-49
2022/01/05 10:31:20;;;;;;;3.50;2.37;;;6.50;99.90;;;;;;5017464;28;20451;-47
2022/01/05 10:33:49;;;;;;;4.03;2.70;;;6.20;99.90;;;;;;5017268;28;20481;-49
2022/01/05 10:36:16;;;;;;;3.13;1.30;;;6.10;99.90;;;;;;5017423;28;20436;-46
2022/01/05 10:38:52;;;;;;;15.53;1.83;;;6.10;99.90;;;;;;5016968;28;20473;-46
2022/01/05 10:41:21;;;;;;;1.00;0.73;;;6.00;99.90;;;;;;5017653;28;20509;-54
2022/01/05 10:44:17;;;;;;;1.80;1.13;;;6.00;99.90;;;;;;5017597;28;20558;-43
2022/01/05 10:46:47;;;;;;;4.17;1.23;;;6.00;99.90;;;;;;5016926;28;20461;-48
2022/01/05 10:49:34;;;;;;;2.40;1.07;;;6.00;99.90;;;;;;5016749;28;20469;-45
2022/01/05 10:52:19;;;;;;;2.53;1.43;;;6.00;99.90;;;;;;5017108;28;20418;-50
2022/01/05 10:54:45;;;;;;;4.40;1.40;;;6.10;99.90;;;;;;5016653;28;20481;-52
2022/01/05 10:57:13;;;;;;;5.80;1.43;;;6.10;99.90;;;;;;5016985;28;20457;-49
2022/01/05 10:59:43;;;;;;;1.37;0.90;;;6.00;99.90;;;;;;5016842;28;20469;-46
2022/01/05 11:02:24;;;;;;;2.03;0.73;;;5.90;99.90;;;;;;5016773;28;20497;-46
2022/01/05 11:04:58;;;;;;;3.43;1.40;;;5.90;99.90;;;;;;5016931;28;20556;-48
2022/01/05 11:07:26;;;;;;;4.67;1.10;;;5.90;99.90;;;;;;5016533;28;20434;-44
2022/01/05 11:09:55;;;;;;;2.63;1.10;;;6.00;99.90;;;;;;5016329;28;20521;-49
2022/01/05 11:12:31;;;;;;;4.20;1.10;;;5.90;99.90;;;;;;5016735;28;20461;-52
2022/01/05 11:15:18;;;;;;;0.90;0.70;;;5.90;99.90;;;;;;5016888;28;20530;-46
2022/01/05 11:18:08;;;;;;;15.27;1.60;;;5.90;99.90;;;;;;5016686;28;20754;-49
2022/01/05 11:20:37;;;;;;;2.47;1.47;;;6.00;99.90;;;;;;5016506;28;20496;-46
2022/01/05 11:23:04;;;;;;;1.73;0.93;;;6.00;99.90;;;;;;5016471;28;20459;-44
2022/01/05 11:25:31;;;;;;;1.30;1.00;;;6.10;99.90;;;;;;5016367;28;20513;-49
2022/01/05 11:27:58;;;;;;;1.47;1.10;;;6.20;99.90;;;;;;5016167;28;20450;-51
2022/01/05 11:30:25;;;;;;;1.30;1.10;;;6.20;99.90;;;;;;5016268;28;20478;-45
2022/01/05 11:32:52;;;;;;;2.80;1.10;;;6.10;99.90;;;;;;5015779;28;20457;-44
2022/01/05 11:35:19;;;;;;;7.23;1.33;;;6.10;99.90;;;;;;5015920;28;20485;-48
2022/01/05 11:37:47;;;;;;;2.50;1.10;;;6.00;99.90;;;;;;5015958;28;20946;-49
2022/01/05 11:40:14;;;;;;;13.10;1.77;;;5.90;99.90;;;;;;5016022;28;20556;-46
2022/01/05 11:42:43;;;;;;;1.10;0.93;;;5.90;99.90;;;;;;5016129;28;20556;-48
2022/01/05 11:45:10;;;;;;;11.30;1.80;;;5.80;99.90;;;;;;5015620;28;20477;-48
2022/01/05 11:47:39;;;;;;;1.60;0.90;;;5.80;99.90;;;;;;5016849;28;20464;-51
2022/01/05 11:50:27;;;;;;;8.10;1.73;;;5.80;99.90;;;;;;5016519;28;20473;-49
2022/01/05 11:52:56;;;;;;;8.40;1.43;;;5.80;99.90;;;;;;5016253;28;20445;-48
2022/01/05 11:55:24;;;;;;;7.23;2.07;;;5.90;99.90;;;;;;5015785;28;20806;-45
2022/01/05 11:58:13;;;;;;;15.97;1.57;;;5.90;99.90;;;;;;5016907;28;20511;-46
2022/01/05 12:00:40;;;;;;;11.50;3.27;;;6.00;99.90;;;;;;5015692;28;20943;-46
2022/01/05 12:03:07;;;;;;;10.43;3.37;;;6.00;99.90;;;;;;5015930;28;20529;-45
2022/01/05 12:06:03;;;;;;;4.50;2.17;;;6.00;99.90;;;;;;5015764;28;20543;-45
2022/01/05 12:08:46;;;;;;;1.43;1.20;;;6.10;99.90;;;;;;5015418;28;20458;-45
2022/01/05 12:11:29;;;;;;;1.97;1.20;;;6.10;99.90;;;;;;5015714;28;20514;-43
2022/01/05 12:13:56;;;;;;;1.20;1.10;;;6.00;99.90;;;;;;5015821;28;20430;-46
2022/01/05 12:16:23;;;;;;;4.20;1.63;;;6.00;99.90;;;;;;5015140;28;20519;-47
2022/01/05 12:19:05;;;;;;;10.00;1.93;;;6.00;99.90;;;;;;5015474;28;20442;-45
2022/01/05 12:21:44;;;;;;;7.10;1.90;;;6.00;99.90;;;;;;5015134;28;20512;-49
2022/01/05 12:24:12;;;;;;;8.63;2.03;;;6.00;99.90;;;;;;5015559;28;20520;-45
2022/01/05 12:26:39;;;;;;;2.03;1.23;;;6.00;99.90;;;;;;5015382;28;20532;-44
2022/01/05 12:29:06;;;;;;;4.23;1.63;;;6.10;99.90;;;;;;5015298;28;20587;-46
2022/01/05 12:31:53;;;;;;;1.00;0.80;;;6.10;99.90;;;;;;5014917;28;20508;-45
2022/01/05 12:34:54;;;;;;;8.23;2.87;;;6.10;99.90;;;;;;5015137;28;20465;-49
2022/01/05 12:37:42;;;;;;;1.33;1.23;;;6.00;99.90;;;;;;5015149;28;20547;-47
2022/01/05 12:40:31;;;;;;;4.00;1.33;;;6.00;99.90;;;;;;5014979;28;20503;-44
2022/01/05 12:43:34;;;;;;;1.53;0.90;;;6.00;99.90;;;;;;5015078;28;20422;-47
2022/01/05 12:46:11;;;;;;;2.07;1.20;;;6.00;99.90;;;;;;5014120;28;20481;-48
2022/01/05 12:49:00;;;;;;;7.73;1.43;;;6.00;99.90;;;;;;5014776;28;20445;-44
2022/01/05 12:51:36;;;;;;;5.47;1.53;;;5.90;99.90;;;;;;5014719;28;20438;-46
2022/01/05 12:54:06;;;;;;;5.23;1.73;;;5.90;99.90;;;;;;5014962;28;20785;-45
2022/01/05 12:56:37;;;;;;;8.03;2.10;;;5.90;99.90;;;;;;5014783;28;20972;-48
2022/01/05 12:59:06;;;;;;;4.93;1.80;;;5.90;99.90;;;;;;5015032;28;20779;-49
2022/01/05 13:01:34;;;;;;;3.40;2.07;;;5.90;99.90;;;;;;5014739;28;20567;-47
2022/01/05 13:04:05;;;;;;;2.13;1.13;;;5.90;99.90;;;;;;5014602;28;20930;-48
2022/01/05 13:06:33;;;;;;;1.23;1.00;;;5.90;99.90;;;;;;5014573;28;20571;-50